createdAt,value
2023-04-05T00:00:44.858Z,8.30
2023-04-05T00:03:14.878Z,8.02
2023-04-05T00:05:42.728Z,8.13
2023-04-05T00:08:13.875Z,7.15
2023-04-05T00:10:41.714Z,8.65
2023-04-05T00:13:09.225Z,8.18
2023-04-05T00:15:36.530Z,8.77
2023-04-05T00:18:03.958Z,8.82
2023-04-05T00:20:31.317Z,9.32
2023-04-05T00:22:58.654Z,8.77
2023-04-05T00:25:26.412Z,9.77
2023-04-05T00:27:53.692Z,9.13
2023-04-05T00:30:21.485Z,7.80
2023-04-05T00:32:50.194Z,8.65
2023-04-05T00:35:18.020Z,7.50
2023-04-05T00:37:45.353Z,8.07
2023-04-05T00:40:12.886Z,8.32
2023-04-05T00:42:40.276Z,8.10
2023-04-05T00:45:08.105Z,8.73
2023-04-05T00:47:35.892Z,8.10
2023-04-05T00:50:03.858Z,8.52
2023-04-05T00:52:32.202Z,7.45
2023-04-05T00:54:59.814Z,8.45
2023-04-05T00:57:30.121Z,7.57
2023-04-05T01:00:00.050Z,7.65
2023-04-05T01:02:45.944Z,8.27
2023-04-05T01:05:40.376Z,8.43
2023-04-05T01:08:39.287Z,8.63
2023-04-05T01:11:08.335Z,6.90
2023-04-05T01:13:35.756Z,9.20
2023-04-05T01:16:03.339Z,8.88
2023-04-05T01:18:31.367Z,9.13
2023-04-05T01:21:39.071Z,9.00
2023-04-05T01:24:23.040Z,8.27
2023-04-05T01:27:14.403Z,9.15
2023-04-05T01:29:49.452Z,9.43
2023-04-05T01:32:25.678Z,9.15
2023-04-05T01:35:16.747Z,9.32
2023-04-05T01:37:48.789Z,8.20
2023-04-05T01:40:16.796Z,9.50
2023-04-05T01:42:47.983Z,8.65
2023-04-05T01:45:15.774Z,9.75
2023-04-05T01:47:43.097Z,8.60
2023-04-05T01:50:10.807Z,9.02
2023-04-05T01:52:38.104Z,8.35
2023-04-05T01:55:06.114Z,8.40
2023-04-05T01:57:33.902Z,9.43
2023-04-05T02:00:01.840Z,7.90
2023-04-05T02:02:29.390Z,8.23
2023-04-05T02:04:56.729Z,9.00
2023-04-05T02:07:25.802Z,9.50
2023-04-05T02:09:53.153Z,7.70
2023-04-05T02:12:20.741Z,8.52
2023-04-05T02:14:48.213Z,8.82
2023-04-05T02:17:17.823Z,9.38
2023-04-05T02:19:46.962Z,7.95
2023-04-05T02:22:14.708Z,7.93
2023-04-05T02:24:41.994Z,8.27
2023-04-05T02:27:09.319Z,8.45
2023-04-05T02:29:36.804Z,8.32
2023-04-05T02:32:04.249Z,8.05
2023-04-05T02:34:33.684Z,7.90
2023-04-05T02:37:01.903Z,8.88
2023-04-05T02:39:29.693Z,7.28
2023-04-05T02:41:57.485Z,7.53
2023-04-05T02:44:25.269Z,8.45
2023-04-05T02:46:54.332Z,8.88
2023-04-05T02:49:27.091Z,6.90
2023-04-05T02:51:56.856Z,9.55
2023-04-05T02:54:24.193Z,8.13
2023-04-05T02:56:57.841Z,8.20
2023-04-05T02:59:28.782Z,7.72
2023-04-05T03:01:57.366Z,8.23
2023-04-05T03:04:27.964Z,8.85
2023-04-05T03:07:02.885Z,8.43
2023-04-05T03:09:33.487Z,8.20
2023-04-05T03:12:05.878Z,7.78
2023-04-05T03:14:37.102Z,8.52
2023-04-05T03:17:04.934Z,9.10
2023-04-05T03:19:37.660Z,8.45
2023-04-05T03:22:14.230Z,7.88
2023-04-05T03:24:42.665Z,8.88
2023-04-05T03:27:13.181Z,9.20
2023-04-05T03:29:55.983Z,8.32
2023-04-05T03:32:23.567Z,9.23
2023-04-05T03:34:59.217Z,8.50
2023-04-05T03:37:26.944Z,8.95
2023-04-05T03:40:01.178Z,9.88
2023-04-05T03:42:28.645Z,9.00
2023-04-05T03:44:56.543Z,10.13
2023-04-05T03:47:23.945Z,10.15
2023-04-05T03:49:52.887Z,10.07
2023-04-05T03:52:20.694Z,10.15
2023-04-05T03:54:47.923Z,11.70
2023-04-05T03:57:21.342Z,12.10
2023-04-05T03:59:50.706Z,11.25
2023-04-05T04:02:19.081Z,11.07
2023-04-05T04:04:47.252Z,10.88
2023-04-05T04:07:15.562Z,9.75
2023-04-05T04:09:43.304Z,11.88
2023-04-05T04:12:13.053Z,11.15
2023-04-05T04:14:49.958Z,11.23
2023-04-05T04:17:44.259Z,12.02
2023-04-05T04:20:31.682Z,10.75
2023-04-05T04:23:14.457Z,13.38
2023-04-05T04:25:56.739Z,10.27
2023-04-05T04:28:48.759Z,11.50
2023-04-05T04:31:49.735Z,12.55
2023-04-05T04:34:44.592Z,13.55
2023-04-05T04:37:31.063Z,13.93
2023-04-05T04:40:18.309Z,12.77
2023-04-05T04:43:00.187Z,12.60
2023-04-05T04:45:47.092Z,13.60
2023-04-05T04:48:28.980Z,14.02
2023-04-05T04:51:11.745Z,12.60
2023-04-05T04:53:39.011Z,14.52
2023-04-05T04:56:07.730Z,13.93
2023-04-05T04:58:35.457Z,14.48
2023-04-05T05:01:10.194Z,13.55
2023-04-05T05:03:41.308Z,17.42
2023-04-05T05:06:08.719Z,13.60
2023-04-05T05:08:37.349Z,14.88
2023-04-05T05:11:07.632Z,15.25
2023-04-05T05:13:35.040Z,14.55
2023-04-05T05:16:04.349Z,14.77
2023-04-05T05:18:31.686Z,14.45
2023-04-05T05:20:58.949Z,15.63
2023-04-05T05:23:26.726Z,13.88
2023-04-05T05:26:00.385Z,15.35
2023-04-05T05:28:27.863Z,14.70
2023-04-05T05:30:55.925Z,14.05
2023-04-05T05:33:23.422Z,14.52
2023-04-05T05:35:51.610Z,15.38
2023-04-05T05:38:19.003Z,14.10
2023-04-05T05:40:46.552Z,14.82
2023-04-05T05:43:14.081Z,13.00
2023-04-05T05:45:41.569Z,12.93
2023-04-05T05:48:09.270Z,12.93
2023-04-05T05:50:36.522Z,12.43
2023-04-05T05:53:03.842Z,13.20
2023-04-05T05:55:31.371Z,13.40
2023-04-05T05:57:59.821Z,12.82
2023-04-05T06:00:27.295Z,13.93
2023-04-05T06:02:54.667Z,13.00
2023-04-05T06:05:22.388Z,11.77
2023-04-05T06:07:49.551Z,12.63
2023-04-05T06:10:18.233Z,12.80
2023-04-05T06:12:46.046Z,12.77
2023-04-05T06:15:13.390Z,10.07
2023-04-05T06:17:42.656Z,9.63
2023-04-05T06:20:13.384Z,9.57
2023-04-05T06:22:41.326Z,9.10
2023-04-05T06:25:10.143Z,9.48
2023-04-05T06:27:37.474Z,10.20
2023-04-05T06:30:05.383Z,9.65
2023-04-05T06:32:32.723Z,9.23
2023-04-05T06:35:02.731Z,10.30
2023-04-05T06:37:30.923Z,9.88
2023-04-05T06:39:59.402Z,10.52
2023-04-05T06:42:28.064Z,11.10
2023-04-05T06:45:00.661Z,10.95
2023-04-05T06:47:28.052Z,11.50
2023-04-05T06:49:55.986Z,13.00
2023-04-05T06:52:23.194Z,11.38
2023-04-05T06:54:50.597Z,10.77
2023-04-05T06:57:18.782Z,11.02
2023-04-05T06:59:46.473Z,10.68
2023-04-05T07:02:13.786Z,9.93
2023-04-05T07:04:41.331Z,9.13
2023-04-05T07:07:08.735Z,9.13
2023-04-05T07:09:39.390Z,8.65
2023-04-05T07:12:08.342Z,9.05
2023-04-05T07:14:37.852Z,10.05
2023-04-05T07:17:06.475Z,7.90
2023-04-05T07:19:34.173Z,7.70
2023-04-05T07:22:01.617Z,9.70
2023-04-05T07:24:29.091Z,9.07
2023-04-05T07:26:57.173Z,9.07
2023-04-05T07:29:25.257Z,8.13
2023-04-05T07:31:52.489Z,7.28
2023-04-05T07:34:19.894Z,8.32
2023-04-05T07:36:47.256Z,9.00
2023-04-05T07:39:14.543Z,8.77
2023-04-05T07:41:43.294Z,8.05
2023-04-05T07:44:10.863Z,9.25
2023-04-05T07:46:39.593Z,9.65
2023-04-05T07:49:07.510Z,8.43
2023-04-05T07:51:36.273Z,8.23
2023-04-05T07:54:05.914Z,7.65
2023-04-05T07:56:33.205Z,6.63
2023-04-05T07:59:01.555Z,7.15
2023-04-05T08:01:29.303Z,8.48
2023-04-05T08:03:58.024Z,7.80
2023-04-05T08:06:27.330Z,7.20
2023-04-05T08:08:54.789Z,23.33
2023-04-05T08:11:22.166Z,8.00
2023-04-05T08:13:49.960Z,6.70
2023-04-05T08:16:17.403Z,7.63
2023-04-05T08:18:44.816Z,7.35
2023-04-05T08:21:13.516Z,8.73
2023-04-05T08:23:40.935Z,8.55
2023-04-05T08:26:08.355Z,7.43
2023-04-05T08:28:35.668Z,7.60
2023-04-05T08:31:03.358Z,8.23
2023-04-05T08:33:31.266Z,7.35
2023-04-05T08:36:04.128Z,8.95
2023-04-05T08:38:31.500Z,7.93
2023-04-05T08:41:19.830Z,8.70
2023-04-05T08:43:57.193Z,7.53
2023-04-05T08:46:25.740Z,7.55
2023-04-05T08:48:53.349Z,7.82
2023-04-05T08:51:26.129Z,8.05
2023-04-05T08:53:54.077Z,6.75
2023-04-05T08:56:26.063Z,8.38
2023-04-05T08:59:01.114Z,7.55
2023-04-05T09:01:30.938Z,7.70
2023-04-05T09:04:06.626Z,6.47
2023-04-05T09:06:36.699Z,6.65
2023-04-05T09:09:08.362Z,6.05
2023-04-05T09:11:36.355Z,5.55
2023-04-05T09:14:07.342Z,5.72
2023-04-05T09:16:38.615Z,6.00
2023-04-05T09:19:06.687Z,5.55
2023-04-05T09:22:00.579Z,6.97
2023-04-05T09:24:42.491Z,5.45
2023-04-05T09:27:15.058Z,4.13
2023-04-05T09:29:48.449Z,4.93
2023-04-05T09:32:18.332Z,4.65
2023-04-05T09:34:45.961Z,4.63
2023-04-05T09:37:22.355Z,5.25
2023-04-05T09:39:52.172Z,3.95
2023-04-05T09:42:23.326Z,4.50
2023-04-05T09:44:58.008Z,4.25
2023-04-05T09:50:21.783Z,3.93
2023-04-05T09:52:50.075Z,4.28
2023-04-05T09:55:28.425Z,4.25
2023-04-05T09:57:56.100Z,5.38
2023-04-05T10:00:23.838Z,5.25
2023-04-05T10:02:56.526Z,5.18
2023-04-05T10:05:27.260Z,3.97
2023-04-05T10:07:56.389Z,4.03
2023-04-05T10:10:26.654Z,4.47
2023-04-05T10:12:54.324Z,5.63
2023-04-05T10:15:26.023Z,4.53
2023-04-05T10:18:13.255Z,4.88
2023-04-05T10:20:43.036Z,4.78
2023-04-05T10:23:22.336Z,4.57
2023-04-05T10:25:53.708Z,5.25
2023-04-05T10:28:36.270Z,4.88
2023-04-05T10:31:27.003Z,4.43
2023-04-05T10:37:01.652Z,4.60
2023-04-05T10:39:45.344Z,4.18
2023-04-05T10:42:18.936Z,4.35
2023-04-05T10:45:02.472Z,3.58
2023-04-05T10:50:24.014Z,4.93
2023-04-05T10:53:01.982Z,5.18
2023-04-05T10:55:31.892Z,4.50
2023-04-05T10:58:10.126Z,4.80
2023-04-05T11:00:38.112Z,4.30
2023-04-05T11:03:09.198Z,4.13
2023-04-05T11:05:38.311Z,4.50
2023-04-05T11:08:07.680Z,4.45
2023-04-05T11:10:37.951Z,3.53
2023-04-05T11:13:07.587Z,4.75
2023-04-05T11:15:36.259Z,3.90
2023-04-05T11:18:22.664Z,3.92
2023-04-05T11:20:55.500Z,4.03
2023-04-05T11:23:25.198Z,4.47
2023-04-05T11:25:55.680Z,4.57
2023-04-05T11:28:27.161Z,5.07
2023-04-05T11:31:03.560Z,4.05
2023-04-05T11:33:57.738Z,4.40
2023-04-05T11:36:57.039Z,4.57
2023-04-05T11:39:25.217Z,4.55
2023-04-05T11:42:05.883Z,4.78
2023-04-05T11:44:44.037Z,5.32
2023-04-05T11:47:12.510Z,5.70
2023-04-05T11:49:42.038Z,5.70
2023-04-05T11:52:14.704Z,4.35
2023-04-05T11:54:46.686Z,4.65
2023-04-05T11:57:19.715Z,5.45
2023-04-05T11:59:49.440Z,5.18
2023-04-05T12:02:17.656Z,5.57
2023-04-05T12:04:45.314Z,5.70
2023-04-05T12:07:16.944Z,5.95
2023-04-05T12:10:08.809Z,4.03
2023-04-05T12:12:38.866Z,4.53
2023-04-05T12:15:08.726Z,3.90
2023-04-05T12:17:46.183Z,4.45
2023-04-05T12:20:15.948Z,4.00
2023-04-05T12:22:44.943Z,4.10
2023-04-05T12:25:13.157Z,4.03
2023-04-05T12:27:41.697Z,4.35
2023-04-05T12:30:18.885Z,4.05
2023-04-05T12:32:50.451Z,4.22
2023-04-05T12:35:32.242Z,4.10
2023-04-05T12:38:09.309Z,4.28
2023-04-05T12:40:40.661Z,3.78
2023-04-05T12:43:11.884Z,4.05
2023-04-05T12:45:43.739Z,3.65
2023-04-05T12:48:22.102Z,3.60
2023-04-05T12:50:54.743Z,3.70
2023-04-05T12:53:25.571Z,3.28
2023-04-05T12:55:55.202Z,3.80
2023-04-05T12:58:41.335Z,2.85
2023-04-05T13:01:10.595Z,3.05
2023-04-05T13:03:38.295Z,3.65
2023-04-05T13:06:06.009Z,4.40
2023-04-05T13:08:33.302Z,3.22
2023-04-05T13:11:01.472Z,4.65
2023-04-05T13:13:29.012Z,5.00
2023-04-05T13:15:56.414Z,17.50
2023-04-05T13:18:27.027Z,5.90
2023-04-05T13:20:54.418Z,6.35
2023-04-05T13:23:21.780Z,4.32
2023-04-05T13:25:49.264Z,4.38
2023-04-05T13:28:16.730Z,5.80
2023-04-05T13:30:44.195Z,3.70
2023-04-05T13:33:11.647Z,4.10
2023-04-05T13:35:39.352Z,4.38
2023-04-05T13:38:07.526Z,6.45
2023-04-05T13:40:35.771Z,4.22
2023-04-05T13:43:03.137Z,3.70
2023-04-05T13:45:34.317Z,4.05
2023-04-05T13:48:04.644Z,3.92
2023-04-05T13:50:32.467Z,3.85
2023-04-05T13:53:00.042Z,3.85
2023-04-05T13:55:27.560Z,4.10
2023-04-05T13:57:55.304Z,4.65
2023-04-05T14:00:22.840Z,4.65
2023-04-05T14:02:52.492Z,4.32
2023-04-05T14:05:20.325Z,5.80
2023-04-05T14:07:53.650Z,5.20
2023-04-05T14:10:23.936Z,4.80
2023-04-05T14:12:51.283Z,5.97
2023-04-05T14:15:18.834Z,5.82
2023-04-05T14:17:47.469Z,6.18
2023-04-05T14:20:15.132Z,5.68
2023-04-05T14:22:42.718Z,6.30
2023-04-05T14:25:10.380Z,5.97
2023-04-05T14:27:42.360Z,6.68
2023-04-05T14:30:11.293Z,4.88
2023-04-05T14:32:39.200Z,5.30
2023-04-05T14:35:07.293Z,4.85
2023-04-05T14:37:36.026Z,5.38
2023-04-05T14:40:03.858Z,5.53
2023-04-05T14:42:41.013Z,6.05
2023-04-05T14:45:16.541Z,6.22
2023-04-05T14:47:44.136Z,5.85
2023-04-05T14:50:11.732Z,5.10
2023-04-05T14:52:40.400Z,6.22
2023-04-05T14:55:08.238Z,5.78
2023-04-05T14:57:35.934Z,5.00
2023-04-05T15:00:04.112Z,6.05
2023-04-05T15:02:31.931Z,5.82
2023-04-05T15:05:00.849Z,4.97
2023-04-05T15:07:28.857Z,5.40
2023-04-05T15:09:56.637Z,5.78
2023-04-05T15:12:29.777Z,5.68
2023-04-05T15:14:58.050Z,5.72
2023-04-05T15:17:25.762Z,5.90
2023-04-05T15:19:53.388Z,5.32
2023-04-05T15:22:30.052Z,5.05
2023-04-05T15:25:01.789Z,6.15
2023-04-05T15:27:30.516Z,6.07
2023-04-05T15:30:11.453Z,6.85
2023-04-05T15:32:45.948Z,6.25
2023-04-05T15:35:24.293Z,6.03
2023-04-05T15:37:51.982Z,6.22
2023-04-05T15:40:19.720Z,6.28
2023-04-05T15:42:50.799Z,5.85
2023-04-05T15:45:24.720Z,5.55
2023-04-05T15:47:55.610Z,4.60
2023-04-05T15:50:23.808Z,5.85
2023-04-05T15:53:03.457Z,4.78
2023-04-05T15:55:31.078Z,4.97
2023-04-05T15:57:58.953Z,5.57
2023-04-05T16:00:28.576Z,4.28
2023-04-05T16:03:00.561Z,3.97
2023-04-05T16:05:47.587Z,4.03
2023-04-05T16:08:25.094Z,4.20
2023-04-05T16:10:52.789Z,4.75
2023-04-05T16:13:39.782Z,5.30
2023-04-05T16:16:09.614Z,5.22
2023-04-05T16:18:38.417Z,5.60
2023-04-05T16:21:27.506Z,6.22
2023-04-05T16:23:56.926Z,5.32
2023-04-05T16:26:24.591Z,4.90
2023-04-05T16:29:04.411Z,5.30
2023-04-05T16:31:32.847Z,6.65
2023-04-05T16:34:00.436Z,5.72
2023-04-05T16:36:28.724Z,6.20
2023-04-05T16:38:56.272Z,5.93
2023-04-05T16:41:24.302Z,5.60
2023-04-05T16:43:52.358Z,7.03
2023-04-05T16:46:23.563Z,4.90
2023-04-05T16:48:51.237Z,5.50
2023-04-05T16:51:18.847Z,5.38
2023-04-05T16:53:46.755Z,6.63
2023-04-05T16:56:14.092Z,13.35
2023-04-05T16:58:41.532Z,5.90
2023-04-05T17:01:12.061Z,5.32
2023-04-05T17:03:39.536Z,5.47
2023-04-05T17:06:22.371Z,5.40
2023-04-05T17:08:50.219Z,7.15
2023-04-05T17:11:17.600Z,6.20
2023-04-05T17:13:46.963Z,5.75
2023-04-05T17:16:14.735Z,6.35
2023-04-05T17:18:42.272Z,5.15
2023-04-05T17:21:09.936Z,6.10
2023-04-05T17:23:37.721Z,7.05
2023-04-05T17:26:05.103Z,6.93
2023-04-05T17:28:33.449Z,9.45
2023-04-05T17:31:01.263Z,7.18
2023-04-05T17:33:29.022Z,7.53
2023-04-05T17:35:58.062Z,6.47
2023-04-05T17:38:27.786Z,6.82
2023-04-05T17:40:57.303Z,8.57
2023-04-05T17:43:24.916Z,7.35
2023-04-05T17:45:52.580Z,5.40
2023-04-05T17:48:31.772Z,8.65
2023-04-05T17:51:04.615Z,8.30
2023-04-05T17:53:33.077Z,6.88
2023-04-05T17:56:01.785Z,8.38
2023-04-05T17:58:30.278Z,8.95
2023-04-05T18:00:57.938Z,10.38
2023-04-05T18:03:27.580Z,7.25
2023-04-05T18:05:56.318Z,8.82
2023-04-05T18:08:24.502Z,10.15
2023-04-05T18:10:59.528Z,9.55
2023-04-05T18:13:28.074Z,9.95
2023-04-05T18:15:56.802Z,11.35
2023-04-05T18:18:24.874Z,11.38
2023-04-05T18:20:53.498Z,11.05
2023-04-05T18:23:25.379Z,12.48
2023-04-05T18:25:53.726Z,10.95
2023-04-05T18:28:23.474Z,12.98
2023-04-05T18:30:51.647Z,11.48
2023-04-05T18:33:19.100Z,12.52
2023-04-05T18:35:50.583Z,8.82
2023-04-05T18:38:18.371Z,12.70
2023-04-05T18:40:46.831Z,15.50
2023-04-05T18:43:14.284Z,13.48
2023-04-05T18:45:41.678Z,13.35
2023-04-05T18:48:10.605Z,14.65
2023-04-05T18:50:38.034Z,11.05
2023-04-05T18:53:06.902Z,14.23
2023-04-05T18:55:34.812Z,13.48
2023-04-05T18:58:02.919Z,14.13
2023-04-05T19:00:30.301Z,14.80
2023-04-05T19:02:57.814Z,17.35
2023-04-05T19:05:26.365Z,14.30
2023-04-05T19:07:53.818Z,16.30
2023-04-05T19:10:21.416Z,15.75
2023-04-05T19:12:48.933Z,18.02
2023-04-05T19:15:17.081Z,16.38
2023-04-05T19:17:44.776Z,16.05
2023-04-05T19:20:13.296Z,17.05
2023-04-05T19:22:40.956Z,15.95
2023-04-05T19:25:08.489Z,15.35
2023-04-05T19:27:36.697Z,16.67
2023-04-05T19:30:06.138Z,17.38
2023-04-05T19:32:33.511Z,18.08
2023-04-05T19:35:01.086Z,15.88
2023-04-05T19:37:29.964Z,18.95
2023-04-05T19:39:58.759Z,19.23
2023-04-05T19:42:26.270Z,19.23
2023-04-05T19:44:57.086Z,19.70
2023-04-05T19:47:25.332Z,21.17
2023-04-05T19:49:56.191Z,19.23
2023-04-05T19:52:39.497Z,19.92
2023-04-05T19:55:33.042Z,20.10
2023-04-05T19:58:02.846Z,24.23
2023-04-05T20:00:51.950Z,20.45
2023-04-05T20:03:30.665Z,19.85
2023-04-05T20:06:13.574Z,20.95
2023-04-05T20:08:42.961Z,23.52
2023-04-05T20:11:18.812Z,21.45
2023-04-05T20:13:50.647Z,23.70
2023-04-05T20:16:22.763Z,19.85
2023-04-05T20:18:50.189Z,20.88
2023-04-05T20:21:19.088Z,20.42
2023-04-05T20:23:47.920Z,21.80
2023-04-05T20:26:17.105Z,20.90
2023-04-05T20:28:55.323Z,21.90
2023-04-05T20:31:25.899Z,21.05
2023-04-05T20:33:54.144Z,21.63
2023-04-05T20:36:26.149Z,21.33
2023-04-05T20:38:53.471Z,25.60
2023-04-05T20:41:22.413Z,24.27
2023-04-05T20:43:49.745Z,22.40
2023-04-05T20:46:17.558Z,26.10
2023-04-05T20:48:46.664Z,24.90
2023-04-05T20:51:14.898Z,22.60
2023-04-05T20:53:45.935Z,23.20
2023-04-05T20:56:13.373Z,22.98
2023-04-05T20:58:41.481Z,27.73
2023-04-05T21:01:09.956Z,26.30
2023-04-05T21:03:40.711Z,31.38
2023-04-05T21:06:09.474Z,26.30
2023-04-05T21:08:40.813Z,24.35
2023-04-05T21:11:10.785Z,28.55
2023-04-05T21:13:39.755Z,29.60
2023-04-05T21:16:09.840Z,27.80
2023-04-05T21:18:37.360Z,29.30
2023-04-05T21:21:07.251Z,28.35
2023-04-05T21:23:34.721Z,28.63
2023-04-05T21:26:04.120Z,32.58
2023-04-05T21:28:34.785Z,27.40
2023-04-05T21:31:02.117Z,29.20
2023-04-05T21:33:29.607Z,31.13
2023-04-05T21:35:57.848Z,31.38
2023-04-05T21:38:25.231Z,31.55
2023-04-05T21:40:53.113Z,32.17
2023-04-05T21:43:21.909Z,30.77
2023-04-05T21:45:49.255Z,31.90
2023-04-05T21:48:16.566Z,31.67
2023-04-05T21:50:46.976Z,30.20
2023-04-05T21:53:14.680Z,30.48
2023-04-05T21:55:42.063Z,31.80
2023-04-05T21:58:09.383Z,33.72
2023-04-05T22:00:36.772Z,28.40
2023-04-05T22:03:04.498Z,34.30
2023-04-05T22:05:37.927Z,36.85
2023-04-05T22:08:07.317Z,32.65
2023-04-05T22:10:35.731Z,37.28
2023-04-05T22:13:03.084Z,32.30
2023-04-05T22:15:33.645Z,37.03
2023-04-05T22:18:01.828Z,35.53
2023-04-05T22:20:29.180Z,36.08
2023-04-05T22:22:59.074Z,38.75
2023-04-05T22:25:26.641Z,33.05
2023-04-05T22:28:00.106Z,32.85
2023-04-05T22:30:28.761Z,36.55
2023-04-05T22:32:56.883Z,34.60
2023-04-05T22:35:24.354Z,34.30
2023-04-05T22:37:55.155Z,35.05
2023-04-05T22:40:26.949Z,36.13
2023-04-05T22:42:54.756Z,33.17
2023-04-05T22:45:22.402Z,28.10
2023-04-05T22:47:49.755Z,29.80
2023-04-05T22:50:17.564Z,29.67
2023-04-05T22:52:50.353Z,31.45
2023-04-05T22:55:17.870Z,29.92
2023-04-05T22:57:45.266Z,29.55
2023-04-05T23:00:13.216Z,28.83
2023-04-05T23:02:42.842Z,29.17
2023-04-05T23:05:16.337Z,27.25
2023-04-05T23:07:43.836Z,29.83
2023-04-05T23:10:11.619Z,31.48
2023-04-05T23:12:40.992Z,27.90
2023-04-05T23:15:14.710Z,26.02
2023-04-05T23:17:42.352Z,25.40
2023-04-05T23:20:10.476Z,24.05
2023-04-05T23:22:37.753Z,25.00
2023-04-05T23:25:06.898Z,24.33
2023-04-05T23:27:34.307Z,22.67
2023-04-05T23:30:01.729Z,21.70
2023-04-05T23:32:29.159Z,22.70
2023-04-05T23:34:58.694Z,23.40
2023-04-05T23:37:26.157Z,21.48
2023-04-05T23:39:53.558Z,21.30
2023-04-05T23:42:21.353Z,17.65
2023-04-05T23:44:48.721Z,20.05
2023-04-05T23:47:16.212Z,19.73
2023-04-05T23:49:43.490Z,16.42
2023-04-05T23:52:10.819Z,18.35
2023-04-05T23:54:38.784Z,17.58
2023-04-05T23:57:06.387Z,16.40
2023-04-05T23:59:33.936Z,16.50
